Time;durP1;ratioP1;P1;durP2;ratioP2;P2;SDS_P1;SDS_P2;PMS_P1;PMS_P2;Temp;Humidity;BMP_temperature;BMP_pressure;BME280_temperature;BME280_humidity;BME280_pressure;Samples;Min_cycle;Max_cycle;Signal;HPM_P1;HPM_P2
2022/06/03 00:00:32;;;;;;;14.93;4.95;;;;;;;12.04;56.60;101405.70;1671089;83;99361;-62
2022/06/03 00:03:28;;;;;;;21.95;5.53;;;;;;;12.02;56.79;101411.13;1657217;84;27098;-62
2022/06/03 00:06:19;;;;;;;16.77;5.55;;;;;;;12.01;56.93;101412.53;1683287;84;98697;-63
2022/06/03 00:09:19;;;;;;;16.35;5.10;;;;;;;11.99;57.13;101415.27;1691617;83;25796;-62
2022/06/03 00:12:28;;;;;;;15.32;5.58;;;;;;;11.96;57.29;101415.39;1631934;83;99058;-62
2022/06/03 00:15:33;;;;;;;22.35;4.85;;;;;;;11.94;57.41;101415.91;1696747;83;25813;-62
2022/06/03 00:18:26;;;;;;;11.08;5.60;;;;;;;11.89;57.58;101412.52;1691656;84;98969;-62
2022/06/03 00:21:03;;;;;;;8.08;4.85;;;;;;;11.85;57.75;101416.24;1689503;83;26503;-62
2022/06/03 00:23:58;;;;;;;13.90;6.05;;;;;;;11.81;57.90;101416.41;1692677;84;99003;-62
2022/06/03 00:26:41;;;;;;;14.50;6.53;;;;;;;11.78;58.06;101417.40;1694791;84;26212;-61
2022/06/03 00:29:47;;;;;;;17.23;7.37;;;;;;;11.74;58.24;101418.88;1697890;83;26210;-59
2022/06/03 00:32:26;;;;;;;16.50;6.08;;;;;;;11.70;58.37;101420.33;1689908;83;27971;-59
2022/06/03 00:35:20;;;;;;;13.95;6.17;;;;;;;11.61;58.58;101411.72;1695047;84;26447;-58
2022/06/03 00:38:07;;;;;;;18.75;7.33;;;;;;;11.61;58.80;101414.41;1675642;83;98834;-64
2022/06/03 00:41:07;;;;;;;10.93;6.58;;;;;;;11.58;58.94;101414.05;1653656;85;27918;-64
2022/06/03 00:43:54;;;;;;;12.53;6.35;;;;;;;11.52;59.14;101417.41;1666745;84;98839;-64
2022/06/03 00:46:43;;;;;;;10.75;5.45;;;;;;;11.46;59.35;101406.42;1672686;84;28306;-64
2022/06/03 00:49:35;;;;;;;14.45;5.90;;;;;;;11.43;59.55;101409.21;1670326;83;98841;-64
2022/06/03 00:52:55;;;;;;;10.80;5.78;;;;;;;11.41;59.73;101411.07;1672942;85;25811;-62
2022/06/03 00:55:37;;;;;;;13.45;6.72;;;;;;;11.38;59.89;101410.71;1670901;84;98895;-61
2022/06/03 00:58:52;;;;;;;11.00;5.35;;;;;;;11.33;60.04;101413.14;1668378;85;26429;-61
2022/06/03 01:01:44;;;;;;;12.05;6.00;;;;;;;11.26;60.20;101413.81;1668134;85;98962;-59
2022/06/03 01:04:30;;;;;;;10.63;6.03;;;;;;;11.23;60.47;101416.60;1673215;84;25873;-59
2022/06/03 01:07:10;;;;;;;12.18;6.30;;;;;;;11.22;60.60;101412.16;1631084;85;99146;-59
2022/06/03 01:10:13;;;;;;;12.73;5.83;;;;;;;11.19;60.75;101413.61;1674815;83;25799;-59
2022/06/03 01:12:44;;;;;;;17.10;6.70;;;;;;;11.16;60.91;101417.73;1664151;84;99031;-67
2022/06/03 01:15:30;;;;;;;11.05;6.15;;;;;;;11.10;60.95;101416.59;1666359;84;28652;-68
2022/06/03 01:18:17;;;;;;;20.82;7.10;;;;;;;11.02;61.01;101411.48;1668791;84;99145;-68
2022/06/03 01:21:06;;;;;;;12.53;6.33;;;;;;;10.96;61.26;101416.17;1669713;83;25292;-68
2022/06/03 01:24:04;;;;;;;12.07;6.05;;;;;;;10.93;61.52;101414.94;1671579;84;25917;-67
2022/06/03 01:27:03;;;;;;;14.75;7.05;;;;;;;10.92;61.81;101415.86;1670524;84;25789;-67
2022/06/03 01:30:01;;;;;;;12.80;6.45;;;;;;;10.90;61.91;101412.34;1671484;84;27417;-67
2022/06/03 01:32:42;;;;;;;13.83;6.87;;;;;;;10.85;62.10;101415.18;1662679;84;98840;-69
2022/06/03 01:36:00;;;;;;;18.73;6.55;;;;;;;10.80;62.27;101412.23;1665584;84;25777;-68
2022/06/03 01:38:54;;;;;;;20.77;7.37;;;;;;;10.77;62.51;101413.20;1667021;84;98853;-69
2022/06/03 01:41:35;;;;;;;12.43;6.58;;;;;;;10.76;62.66;101410.58;1666725;85;26203;-68
2022/06/03 01:44:28;;;;;;;15.35;6.75;;;;;;;10.73;62.80;101408.41;1669681;84;99022;-62
2022/06/03 01:47:46;;;;;;;10.45;6.83;;;;;;;10.71;62.90;101408.91;1641177;85;26050;-62
2022/06/03 01:50:53;;;;;;;16.52;6.58;;;;;;;10.69;63.07;101412.11;1666600;84;99322;-61
2022/06/03 01:53:52;;;;;;;13.13;6.85;;;;;;;10.65;63.20;101406.42;1672284;84;26191;-63
2022/06/03 01:57:00;;;;;;;11.90;7.03;;;;;;;10.64;63.38;101410.03;1668029;85;98957;-62
2022/06/03 02:00:10;;;;;;;10.60;6.25;;;;;;;10.62;63.53;101410.55;1669823;85;27415;-62
2022/06/03 02:02:49;;;;;;;14.17;7.33;;;;;;;10.61;63.66;101412.81;1671255;84;99043;-62
2022/06/03 02:05:57;;;;;;;14.45;6.80;;;;;;;10.61;63.78;101411.94;1667923;84;25832;-62
2022/06/03 02:09:06;;;;;;;12.43;6.75;;;;;;;10.60;63.85;101415.55;1665281;84;98827;-62
2022/06/03 02:11:52;;;;;;;12.68;7.05;;;;;;;10.56;63.95;101420.12;1669649;84;25823;-62
2022/06/03 02:14:42;;;;;;;14.90;6.58;;;;;;;10.50;64.08;101413.61;1669896;84;98881;-62
2022/06/03 02:17:19;;;;;;;15.32;7.10;;;;;;;10.49;64.21;101420.36;1670826;84;25780;-61
2022/06/03 02:20:24;;;;;;;14.75;7.00;;;;;;;10.45;64.32;101425.39;1672696;84;99003;-61
2022/06/03 02:23:05;;;;;;;13.50;7.62;;;;;;;10.41;64.42;101423.27;1672906;84;25881;-61
2022/06/03 02:25:43;;;;;;;17.45;7.08;;;;;;;10.37;64.50;101417.62;1630241;86;98721;-62
2022/06/03 02:28:49;;;;;;;16.55;7.28;;;;;;;10.35;64.68;101421.69;1673820;85;27896;-62
2022/06/03 02:31:46;;;;;;;15.70;7.20;;;;;;;10.35;64.75;101423.02;1672049;85;98961;-62
2022/06/03 02:34:32;;;;;;;10.15;6.80;;;;;;;10.31;64.87;101420.02;1671625;85;25743;-62
2022/06/03 02:37:16;;;;;;;19.73;7.90;;;;;;;10.29;64.98;101416.51;1673997;84;99097;-62
2022/06/03 02:39:57;;;;;;;15.75;7.20;;;;;;;10.28;65.10;101426.81;1690526;83;26189;-61
2022/06/03 02:42:52;;;;;;;12.88;7.08;;;;;;;10.26;65.17;101421.08;1695762;83;99295;-62
2022/06/03 02:45:54;;;;;;;12.78;6.95;;;;;;;10.21;65.23;101428.38;1694782;83;25763;-62
2022/06/03 02:49:01;;;;;;;15.35;7.15;;;;;;;10.19;65.42;101419.47;1686999;83;99197;-61
2022/06/03 02:51:58;;;;;;;13.50;6.75;;;;;;;10.19;65.58;101427.51;1691399;83;25802;-62
2022/06/03 02:54:51;;;;;;;11.85;6.72;;;;;;;10.15;65.44;101434.76;1689821;83;99271;-61
2022/06/03 02:57:54;;;;;;;14.87;7.03;;;;;;;10.07;65.55;101430.95;1688848;83;28115;-58
2022/06/03 03:01:02;;;;;;;14.13;7.43;;;;;;;10.04;65.78;101434.19;1688462;83;99002;-60
2022/06/03 03:03:56;;;;;;;12.93;6.62;;;;;;;10.03;65.85;101440.47;1689311;83;25960;-59
2022/06/03 03:06:38;;;;;;;14.33;8.30;;;;;;;9.99;65.96;101442.35;1692034;83;99161;-64
2022/06/03 03:09:30;;;;;;;11.83;7.65;;;;;;;9.98;66.01;101441.05;1693960;83;26521;-62
2022/06/03 03:12:31;;;;;;;12.15;7.42;;;;;;;9.96;66.15;101437.55;1672096;85;27401;-63
2022/06/03 03:15:22;;;;;;;15.10;7.60;;;;;;;9.94;66.27;101433.56;1633641;87;25799;-64
2022/06/03 03:18:18;;;;;;;12.75;7.25;;;;;;;9.92;66.41;101435.41;1672762;85;25733;-66
2022/06/03 03:21:19;;;;;;;17.45;7.47;;;;;;;9.91;66.59;101439.01;1635581;86;98757;-64
2022/06/03 03:24:12;;;;;;;14.78;8.28;;;;;;;9.95;66.80;101438.46;1633103;86;25791;-64
2022/06/03 03:26:55;;;;;;;13.58;7.72;;;;;;;9.98;66.87;101439.25;1667836;85;98700;-64
2022/06/03 03:29:42;;;;;;;14.43;8.08;;;;;;;9.97;66.89;101436.16;1634155;87;25900;-65
2022/06/03 03:32:28;;;;;;;15.65;8.68;;;;;;;9.98;67.02;101442.39;1669120;85;98858;-64
2022/06/03 03:35:22;;;;;;;18.85;8.85;;;;;;;10.01;67.11;101435.61;1669151;84;25820;-64
2022/06/03 03:38:27;;;;;;;15.85;8.10;;;;;;;10.04;67.20;101443.09;1658738;84;99384;-64
2022/06/03 03:41:13;;;;;;;17.20;8.20;;;;;;;10.07;67.24;101448.38;1691688;83;28453;-64
2022/06/03 03:44:27;;;;;;;15.23;8.10;;;;;;;10.11;67.30;101450.95;1696276;82;99320;-64
2022/06/03 03:47:19;;;;;;;19.57;9.23;;;;;;;10.14;67.35;101452.21;1696833;83;25986;-64
2022/06/03 03:50:19;;;;;;;21.90;9.00;;;;;;;10.16;67.38;101446.35;1696284;83;98985;-64
2022/06/03 03:53:41;;;;;;;16.15;8.50;;;;;;;10.17;67.45;101455.68;1696664;83;25823;-65
2022/06/03 03:56:59;;;;;;;23.22;10.15;;;;;;;10.21;67.55;101451.15;1693610;83;98969;-65
2022/06/03 04:00:10;;;;;;;20.35;9.95;;;;;;;10.28;67.58;101454.06;1698168;83;25726;-65
2022/06/03 04:03:11;;;;;;;23.50;10.15;;;;;;;10.34;67.62;101461.92;1687862;83;99021;-64
2022/06/03 04:05:58;;;;;;;21.50;8.93;;;;;;;10.39;67.65;101462.67;1694173;83;25988;-65
2022/06/03 04:09:03;;;;;;;25.57;10.68;;;;;;;10.48;67.70;101458.80;1697330;83;99005;-65
2022/06/03 04:12:05;;;;;;;13.88;9.30;;;;;;;10.53;67.74;101458.20;1698538;83;27431;-65
2022/06/03 04:15:00;;;;;;;21.95;10.23;;;;;;;10.60;67.73;101461.99;1691899;83;98855;-65
2022/06/03 04:21:23;;;;;;;19.12;10.10;;;;;;;10.71;67.79;101462.55;1733278;81;98909;-65
2022/06/03 04:24:04;;;;;;;18.30;9.80;;;;;;;10.80;67.79;101462.72;1730229;81;25987;-64
2022/06/03 04:26:48;;;;;;;;;;;;;;;10.87;67.82;101465.62;1724574;81;98888;-64
2022/06/03 04:29:54;;;;;;;17.95;9.55;;;;;;;10.92;67.89;101456.97;1702499;82;26333;-63
2022/06/03 04:32:45;;;;;;;20.80;10.08;;;;;;;10.99;67.86;101454.97;1728989;81;98857;-65
2022/06/03 04:35:41;;;;;;;20.97;10.03;;;;;;;11.06;67.82;101449.82;1726574;81;26493;-66
2022/06/03 04:38:26;;;;;;;20.25;9.90;;;;;;;11.15;67.80;101452.20;1731502;81;99096;-65
2022/06/03 04:41:40;;;;;;;22.00;10.20;;;;;;;11.22;67.77;101448.86;1726546;81;27464;-64
2022/06/03 04:44:41;;;;;;;21.70;9.80;;;;;;;11.31;67.78;101455.26;1726030;81;99163;-64
2022/06/03 04:47:31;;;;;;;23.45;11.93;;;;;;;11.43;67.74;101459.34;1725366;81;26512;-64
2022/06/03 04:50:31;;;;;;;26.62;11.45;;;;;;;11.53;67.73;101457.63;1730104;81;99156;-64
2022/06/03 04:53:22;;;;;;;20.20;11.38;;;;;;;11.64;67.67;101459.48;1733221;81;25809;-63
2022/06/03 04:56:19;;;;;;;;;;;;;;;11.75;67.63;101463.13;1729523;81;99571;-64
2022/06/03 04:59:17;;;;;;;24.52;10.82;;;;;;;11.86;67.59;101463.67;1729109;81;25730;-65
2022/06/03 05:02:29;;;;;;;21.35;9.98;;;;;;;11.96;67.51;101462.41;1724976;81;99493;-63
2022/06/03 05:05:33;;;;;;;19.73;9.88;;;;;;;12.10;67.44;101468.63;1727764;81;25963;-64
2022/06/03 05:08:36;;;;;;;27.42;11.50;;;;;;;12.22;67.31;101469.98;1726063;81;99471;-64
2022/06/03 05:11:51;;;;;;;23.67;10.38;;;;;;;12.33;67.25;101467.77;1728939;81;27455;-64
2022/06/03 05:14:59;;;;;;;15.63;9.63;;;;;;;12.43;67.18;101466.96;1729444;81;99109;-64
2022/06/03 05:17:49;;;;;;;16.57;8.85;;;;;;;12.54;67.08;101464.27;1725165;81;25302;-64
2022/06/03 05:20:59;;;;;;;19.50;9.95;;;;;;;12.63;66.94;101465.26;1731899;81;99948;-66
2022/06/03 05:23:48;;;;;;;15.90;8.45;;;;;;;12.73;66.87;101468.94;1728691;81;25780;-65
2022/06/03 05:27:01;;;;;;;19.98;8.68;;;;;;;12.86;66.75;101472.90;1725078;82;98930;-64
2022/06/03 05:30:03;;;;;;;18.45;8.33;;;;;;;12.94;66.65;101468.09;1731007;81;26933;-64
2022/06/03 05:32:56;;;;;;;14.87;7.47;;;;;;;13.04;66.55;101469.44;1728284;81;98983;-64
2022/06/03 05:35:45;;;;;;;11.45;7.10;;;;;;;13.17;66.43;101476.11;1728024;81;25934;-64
2022/06/03 05:38:41;;;;;;;14.25;8.03;;;;;;;13.27;66.28;101468.06;1728859;81;98974;-64
2022/06/03 05:45:15;;;;;;;13.65;8.30;;;;;;;13.46;66.10;101473.56;1728520;81;98876;-64
2022/06/03 05:47:55;;;;;;;14.33;7.55;;;;;;;13.56;65.96;101470.88;1732251;81;26631;-64
2022/06/03 05:50:55;;;;;;;23.92;8.70;;;;;;;13.68;65.88;101461.41;1731013;81;98937;-64
2022/06/03 05:53:57;;;;;;;13.58;7.35;;;;;;;13.77;65.75;101465.52;1728157;81;25747;-64
2022/06/03 05:56:46;;;;;;;12.88;6.60;;;;;;;13.87;65.64;101464.17;1728097;81;98971;-64
2022/06/03 05:59:39;;;;;;;14.25;6.17;;;;;;;13.96;65.41;101465.98;1730581;81;25722;-64
2022/06/03 06:02:44;;;;;;;11.00;6.03;;;;;;;14.07;65.37;101465.98;1728628;81;98894;-64
2022/06/03 06:05:43;;;;;;;14.95;6.17;;;;;;;14.18;65.22;101467.73;1730195;81;26659;-64
2022/06/03 06:08:31;;;;;;;11.03;5.75;;;;;;;14.29;65.11;101468.98;1731490;81;98874;-64
2022/06/03 06:11:08;;;;;;;14.13;7.20;;;;;;;14.43;64.89;101475.13;1731853;81;26954;-64
2022/06/03 06:14:04;;;;;;;13.30;6.50;;;;;;;14.50;64.72;101464.46;1728697;81;98904;-65
2022/06/03 06:16:43;;;;;;;9.48;5.22;;;;;;;14.61;64.58;101476.98;1733089;81;25707;-64
2022/06/03 06:19:34;;;;;;;11.78;5.50;;;;;;;14.73;64.38;101477.34;1689962;82;98976;-65
2022/06/03 06:22:07;;;;;;;9.58;4.60;;;;;;;14.84;64.31;101485.34;1733533;82;25707;-64
2022/06/03 06:24:44;;;;;;;14.73;4.87;;;;;;;14.98;64.11;101480.63;1739830;81;27986;-65
2022/06/03 06:27:52;;;;;;;13.30;4.25;;;;;;;15.10;63.92;101477.33;1729571;81;98683;-64
2022/06/03 06:30:57;;;;;;;11.25;3.25;;;;;;;15.19;63.73;101476.88;1728954;82;25806;-64
2022/06/03 06:33:45;;;;;;;6.05;3.40;;;;;;;15.34;63.50;101479.77;1713378;83;98980;-64
2022/06/03 06:36:25;;;;;;;6.30;2.83;;;;;;;15.47;63.20;101475.51;1718166;82;26598;-64
2022/06/03 06:39:19;;;;;;;6.85;2.90;;;;;;;15.56;62.95;101473.69;1720960;81;98722;-64
2022/06/03 06:41:59;;;;;;;13.48;3.00;;;;;;;15.64;62.68;101464.72;1725204;82;26390;-64
2022/06/03 06:44:46;;;;;;;7.33;2.83;;;;;;;15.72;62.51;101467.02;1722065;82;98904;-64
2022/06/03 06:47:38;;;;;;;3.30;2.30;;;;;;;15.79;62.26;101460.34;1711764;82;25822;-64
2022/06/03 06:50:18;;;;;;;5.40;2.60;;;;;;;15.86;62.04;101465.35;1724961;82;98754;-64
2022/06/03 06:52:52;;;;;;;10.38;2.77;;;;;;;15.91;61.77;101463.28;1736098;81;27400;-64
2022/06/03 06:55:51;;;;;;;6.85;2.83;;;;;;;16.04;61.63;101465.34;1729945;81;99132;-64
2022/06/03 06:58:46;;;;;;;3.70;1.82;;;;;;;16.16;61.36;101462.86;1727156;82;26460;-64
2022/06/03 07:01:18;;;;;;;3.83;2.30;;;;;;;16.26;61.02;101460.53;1726730;81;98964;-64
2022/06/03 07:04:13;;;;;;;7.72;2.05;;;;;;;16.35;60.74;101465.45;1733581;81;25761;-64
2022/06/03 07:06:56;;;;;;;6.75;1.55;;;;;;;16.41;60.44;101456.12;1726308;82;27447;-64
2022/06/03 07:09:42;;;;;;;2.95;1.70;;;;;;;16.47;60.04;101448.54;1732353;81;98727;-65
2022/06/03 07:12:18;;;;;;;2.85;1.62;;;;;;;16.55;59.71;101453.05;1731448;82;26333;-65
2022/06/03 07:15:04;;;;;;;1.67;1.32;;;;;;;16.58;59.28;101449.30;1729000;81;98166;-65
2022/06/03 07:21:07;;;;;;;4.97;1.60;;;;;;;16.71;58.68;101442.75;1731395;81;98777;-64
2022/06/03 07:23:51;;;;;;;5.12;1.52;;;;;;;16.78;58.24;101450.45;1731241;82;25731;-64
2022/06/03 07:26:34;;;;;;;3.67;1.42;;;;;;;16.86;57.92;101438.70;1736916;82;98829;-64
2022/06/03 07:29:42;;;;;;;3.92;1.47;;;;;;;16.99;57.60;101443.42;1735024;82;26359;-64
2022/06/03 07:32:21;;;;;;;4.83;1.98;;;;;;;17.05;57.24;101442.59;1728172;81;98786;-65
2022/06/03 07:34:58;;;;;;;4.33;1.92;;;;;;;17.12;56.96;101439.92;1707493;83;29508;-64
2022/06/03 07:37:53;;;;;;;2.08;1.20;;;;;;;17.18;56.63;101442.27;1733801;82;98972;-65
2022/06/03 07:40:36;;;;;;;5.25;1.80;;;;;;;17.24;56.33;101442.88;1732625;82;25937;-64
2022/06/03 07:43:24;;;;;;;2.15;1.52;;;;;;;17.31;56.06;101441.55;1739540;82;99137;-66
2022/06/03 07:45:56;;;;;;;3.62;1.60;;;;;;;17.38;55.78;101428.91;1734441;82;25774;-65
2022/06/03 07:48:26;;;;;;;9.55;1.55;;;;;;;17.45;55.27;101433.00;1736229;81;28340;-65
2022/06/03 07:51:11;;;;;;;4.97;1.70;;;;;;;17.44;54.96;101423.13;1731510;82;98749;-65
2022/06/03 07:54:01;;;;;;;2.08;1.30;;;;;;;17.48;54.83;101425.17;1736975;81;25751;-65
2022/06/03 07:56:31;;;;;;;4.08;1.72;;;;;;;17.54;54.54;101426.16;1735030;81;98926;-68
2022/06/03 07:59:17;;;;;;;4.83;1.30;;;;;;;17.63;54.31;101424.73;1734998;81;25905;-68
2022/06/03 08:02:17;;;;;;;9.00;1.50;;;;;;;17.68;54.02;101430.30;1736949;82;98900;-69
2022/06/03 08:04:46;;;;;;;3.20;1.52;;;;;;;17.73;53.72;101421.41;1738376;82;27258;-69
2022/06/03 08:13:04;;;;;;;2.30;1.60;;;;;;;17.88;52.82;101420.08;1734367;82;98908;-68
2022/06/03 08:15:39;;;;;;;8.08;2.30;;;;;;;17.90;52.59;101419.50;1727907;82;27380;-68
2022/06/03 08:18:10;;;;;;;3.98;1.55;;;;;;;17.96;52.43;101424.06;1740697;82;25813;-67
2022/06/03 08:20:45;;;;;;;6.75;3.75;;;;;;;18.01;52.09;101422.42;1729135;82;98089;-68
2022/06/03 08:23:12;;;;;;;6.28;1.45;;;;;;;18.02;51.80;101429.59;1730583;81;25847;-68
2022/06/03 08:25:43;;;;;;;21.97;8.25;;;;;;;18.06;51.57;101428.44;1728404;81;98786;-68
2022/06/03 08:28:15;;;;;;;8.10;2.20;;;;;;;18.16;51.49;101425.54;1734069;82;27540;-68
2022/06/03 08:30:45;;;;;;;3.80;2.00;;;;;;;18.22;51.23;101421.53;1727410;81;26880;-68
2022/06/03 08:33:15;;;;;;;3.92;1.50;;;;;;;18.24;51.01;101427.25;1726432;81;98787;-68
2022/06/03 08:35:45;;;;;;;3.47;1.72;;;;;;;18.26;50.77;101423.96;1730801;81;25804;-67
2022/06/03 08:38:25;;;;;;;6.08;1.30;;;;;;;18.31;50.46;101425.90;1714319;82;98739;-67
2022/06/03 08:41:26;;;;;;;3.72;1.77;;;;;;;18.41;50.14;101414.84;1724551;81;25700;-69
2022/06/03 08:44:09;;;;;;;3.95;1.32;;;;;;;18.48;49.84;101416.69;1726183;81;98727;-68
2022/06/03 08:46:47;;;;;;;3.80;1.85;;;;;;;18.62;49.78;101418.06;1704581;81;25826;-69
2022/06/03 08:49:23;;;;;;;4.92;2.17;;;;;;;18.72;49.60;101410.19;1727115;81;98788;-68
2022/06/03 08:52:00;;;;;;;4.17;1.70;;;;;;;18.81;49.47;101405.03;1727183;82;25784;-68
2022/06/03 08:54:40;;;;;;;5.30;2.47;;;;;;;18.87;49.34;101411.91;1729759;82;27718;-68
2022/06/03 08:57:41;;;;;;;2.75;2.10;;;;;;;19.00;49.16;101412.84;1730413;81;98729;-67
2022/06/03 09:00:19;;;;;;;6.77;1.60;;;;;;;19.06;48.83;101411.07;1727512;81;26177;-67
2022/06/03 09:03:09;;;;;;;1.60;1.12;;;;;;;18.98;48.52;101394.41;1724397;81;98780;-67
2022/06/03 09:05:41;;;;;;;7.28;1.37;;;;;;;19.12;48.50;101413.86;1732339;82;26419;-68
2022/06/03 09:08:28;;;;;;;5.12;1.60;;;;;;;19.05;48.16;101405.25;1727237;81;98705;-69
2022/06/03 09:11:14;;;;;;;3.98;1.57;;;;;;;19.08;47.89;101405.05;1723427;82;26505;-68
2022/06/03 09:13:50;;;;;;;4.75;1.40;;;;;;;19.07;47.52;101409.23;1727562;81;98941;-68
2022/06/03 09:16:18;;;;;;;7.55;1.80;;;;;;;19.05;47.43;101413.89;1730104;82;25836;-67
2022/06/03 09:18:50;;;;;;;1.82;1.40;;;;;;;19.08;47.37;101409.61;1727611;81;25856;-67
2022/06/03 09:21:24;;;;;;;2.33;1.40;;;;;;;19.20;46.80;101413.35;1732518;81;98747;-70
2022/06/03 09:23:55;;;;;;;8.33;1.70;;;;;;;19.25;46.70;101408.48;1739260;82;25859;-68
2022/06/03 09:26:32;;;;;;;;;;;;;;;19.32;46.70;101407.95;1736243;81;98726;-67
2022/06/03 09:29:02;;;;;;;1.92;1.15;;;;;;;19.48;46.59;101409.64;1737114;82;26520;-67
2022/06/03 09:31:30;;;;;;;1.40;1.27;;;;;;;19.63;46.78;101409.48;1739624;81;99023;-68
2022/06/03 09:33:58;;;;;;;2.02;1.22;;;;;;;19.76;46.61;101407.66;1739937;82;27470;-67
2022/06/03 09:36:28;;;;;;;2.15;1.60;;;;;;;19.86;46.58;101407.02;1740748;81;26597;-68
2022/06/03 09:39:13;;;;;;;1.50;1.40;;;;;;;19.90;46.23;101398.53;1740808;81;98705;-67
2022/06/03 09:41:44;;;;;;;13.03;1.85;;;;;;;19.99;46.11;101411.98;1740565;82;26307;-67
2022/06/03 09:44:14;;;;;;;2.33;1.40;;;;;;;20.07;45.91;101398.21;1736007;81;98901;-66
2022/06/03 09:46:43;;;;;;;2.52;1.45;;;;;;;20.02;45.65;101392.72;1741986;82;27505;-67
2022/06/03 09:49:10;;;;;;;9.13;1.55;;;;;;;19.99;45.27;101392.94;1738423;81;98047;-68
2022/06/03 09:51:57;;;;;;;1.67;1.40;;;;;;;19.96;45.45;101387.70;1737222;82;25560;-70
2022/06/03 09:54:34;;;;;;;4.85;1.20;;;;;;;19.99;45.33;101390.21;1735071;82;27941;-69
2022/06/03 09:57:38;;;;;;;4.37;1.62;;;;;;;19.96;45.00;101387.22;1740602;82;98831;-68
2022/06/03 10:00:16;;;;;;;6.33;1.52;;;;;;;19.93;44.85;101376.55;1734592;82;27438;-69
2022/06/03 10:02:44;;;;;;;4.55;2.00;;;;;;;19.97;44.53;101377.20;1731853;82;98674;-68
2022/06/03 10:05:16;;;;;;;5.05;1.70;;;;;;;20.06;44.69;101381.50;1730827;82;25718;-68
2022/06/03 10:07:46;;;;;;;2.20;1.42;;;;;;;20.17;44.58;101380.73;1735180;82;98888;-69
2022/06/03 10:13:09;;;;;;;2.15;1.60;;;;;;;20.23;44.26;101374.84;1733427;82;98889;-66
2022/06/03 10:16:00;;;;;;;2.42;1.47;;;;;;;20.20;44.11;101373.70;1715285;83;25789;-68
2022/06/03 10:18:31;;;;;;;9.23;1.82;;;;;;;20.26;44.11;101375.12;1714683;83;25987;-68
2022/06/03 10:21:07;;;;;;;3.67;1.80;;;;;;;20.31;43.69;101370.21;1734415;82;98763;-67
2022/06/03 10:23:38;;;;;;;4.33;1.70;;;;;;;20.34;43.78;101361.33;1725952;81;26422;-68
2022/06/03 10:26:08;;;;;;;5.10;1.95;;;;;;;20.47;43.78;101365.42;1739054;81;98769;-67
2022/06/03 10:28:38;;;;;;;5.22;1.70;;;;;;;20.66;43.83;101365.81;1738333;82;26318;-68
2022/06/03 10:31:09;;;;;;;1.60;1.50;;;;;;;20.84;43.73;101367.62;1733704;82;98957;-67
2022/06/03 10:33:37;;;;;;;1.70;1.57;;;;;;;20.89;43.55;101361.34;1710183;83;25766;-68
2022/06/03 10:36:06;;;;;;;4.15;2.33;;;;;;;21.10;43.41;101357.48;1737029;82;26574;-69
2022/06/03 10:38:36;;;;;;;1.82;1.52;;;;;;;21.10;43.41;101357.48;1732988;82;98768;-68
2022/06/03 10:41:09;;;;;;;2.45;1.70;;;;;;;21.23;43.09;101356.08;1723746;82;25917;-68
2022/06/03 10:43:36;;;;;;;7.85;2.20;;;;;;;21.45;43.16;101342.53;1736375;82;99106;-68
2022/06/03 10:46:19;;;;;;;2.00;1.57;;;;;;;21.45;43.16;101342.53;1733110;82;26486;-68
2022/06/03 10:48:46;;;;;;;3.52;1.72;;;;;;;21.53;42.88;101333.25;1738499;82;25747;-68
2022/06/03 11:02:41;;;;;;;5.45;1.60;;;;;;;21.94;41.38;101329.11;1717013;82;98658;-67
2022/06/03 11:05:25;;;;;;;2.85;1.98;;;;;;;21.70;41.20;101323.25;1738241;82;28045;-68
2022/06/03 11:08:08;;;;;;;6.05;1.50;;;;;;;21.65;41.12;101317.28;1731327;81;99097;-67
2022/06/03 11:10:50;;;;;;;3.45;1.87;;;;;;;21.62;40.98;101319.38;1740505;82;26583;-69
2022/06/03 11:13:39;;;;;;;8.73;1.62;;;;;;;21.80;41.18;101302.05;1728732;81;98964;-67
2022/06/03 11:16:26;;;;;;;10.93;1.85;;;;;;;22.18;41.14;101315.37;1739952;81;25734;-67
2022/06/03 11:18:53;;;;;;;4.03;1.90;;;;;;;22.41;40.82;101308.03;1738170;82;28399;-68
2022/06/03 11:21:29;;;;;;;1.67;1.52;;;;;;;22.48;40.56;101303.80;1738547;81;98626;-68
2022/06/03 11:24:01;;;;;;;7.03;1.65;;;;;;;22.43;40.26;101304.67;1735440;80;26632;-68
2022/06/03 11:26:41;;;;;;;2.08;1.42;;;;;;;22.46;39.94;101299.82;1731323;81;98838;-68
2022/06/03 11:29:16;;;;;;;3.52;1.20;;;;;;;22.48;39.96;101296.96;1733513;81;32917;-68
2022/06/03 11:31:46;;;;;;;1.67;1.32;;;;;;;22.66;39.68;101296.80;1730201;81;98774;-67
2022/06/03 11:34:23;;;;;;;1.52;1.12;;;;;;;22.66;39.63;101288.59;1732033;81;26215;-67
2022/06/03 11:36:57;;;;;;;1.35;1.15;;;;;;;22.87;39.56;101291.42;1735606;81;25943;-69
2022/06/03 11:40:00;;;;;;;3.25;1.57;;;;;;;23.12;39.29;101285.59;1735849;81;98578;-68
2022/06/03 11:42:50;;;;;;;6.58;1.47;;;;;;;23.30;39.14;101285.88;1734753;81;25775;-68
2022/06/03 11:45:27;;;;;;;2.15;1.27;;;;;;;23.52;39.01;101288.95;1732792;80;98725;-67
2022/06/03 11:48:16;;;;;;;4.05;1.15;;;;;;;23.74;38.54;101286.59;1722369;81;26306;-67
2022/06/03 11:50:44;;;;;;;1.25;1.07;;;;;;;23.77;38.50;101280.34;1735021;81;98574;-69
2022/06/03 11:53:19;;;;;;;1.65;0.98;;;;;;;23.92;38.40;101274.88;1734132;81;26581;-63
2022/06/03 11:55:46;;;;;;;3.90;1.52;;;;;;;24.13;37.98;101272.08;1734958;81;98744;-63
2022/06/03 11:58:31;;;;;;;4.87;1.60;;;;;;;24.24;38.00;101273.84;1735388;81;27486;-62
2022/06/03 12:01:04;;;;;;;2.27;1.20;;;;;;;24.39;37.42;101264.76;1732796;81;25894;-62
2022/06/03 12:03:44;;;;;;;3.05;1.17;;;;;;;24.34;37.35;101261.57;1732563;81;98390;-61
2022/06/03 12:06:16;;;;;;;3.25;1.20;;;;;;;24.40;37.35;101265.13;1734087;81;26484;-64
2022/06/03 12:09:00;;;;;;;4.65;1.60;;;;;;;24.52;37.21;101255.77;1727184;80;98731;-63
2022/06/03 12:14:42;;;;;;;4.10;0.82;;;;;;;24.82;36.89;101257.03;1733327;81;98770;-62
2022/06/03 12:17:16;;;;;;;4.55;1.07;;;;;;;24.96;36.35;101258.98;1732691;81;25698;-61
2022/06/03 12:19:47;;;;;;;3.92;1.27;;;;;;;25.08;36.41;101258.73;1728981;81;98908;-62
2022/06/03 12:22:33;;;;;;;1.35;0.95;;;;;;;25.31;36.10;101257.05;1720602;81;26604;-62
2022/06/03 12:25:03;;;;;;;2.98;1.05;;;;;;;25.37;35.03;101247.72;1730365;82;28180;-61
2022/06/03 12:27:39;;;;;;;2.58;1.45;;;;;;;25.22;35.14;101248.68;1724982;81;97608;-61
2022/06/03 12:30:20;;;;;;;2.02;1.35;;;;;;;25.33;34.93;101243.53;1731083;81;26419;-62
2022/06/03 12:32:52;;;;;;;;;;;;;;;25.19;34.22;101242.11;1731213;81;98679;-63
2022/06/03 12:35:50;;;;;;;2.35;1.15;;;;;;;25.29;34.42;101236.61;1729191;82;25703;-62
2022/06/03 12:38:24;;;;;;;1.02;0.98;;;;;;;25.54;34.54;101231.86;1729392;81;98583;-62
2022/06/03 12:41:05;;;;;;;3.67;1.20;;;;;;;25.82;34.28;101229.19;1729777;82;27227;-62
2022/06/03 12:43:39;;;;;;;2.22;1.37;;;;;;;25.91;34.10;101231.03;1730298;81;98891;-64
2022/06/03 12:46:10;;;;;;;4.62;1.00;;;;;;;26.13;34.24;101225.11;1724672;82;27661;-63
2022/06/03 12:48:47;;;;;;;4.15;1.20;;;;;;;26.22;34.04;101224.70;1729632;82;25896;-63
2022/06/03 12:51:36;;;;;;;2.55;1.20;;;;;;;26.32;33.48;101210.92;1726437;81;98759;-62
2022/06/03 12:54:17;;;;;;;5.03;1.45;;;;;;;26.41;33.48;101208.62;1709793;82;25941;-62
2022/06/03 12:57:00;;;;;;;2.95;0.82;;;;;;;26.60;33.76;101212.61;1727993;81;98815;-62
2022/06/03 12:59:38;;;;;;;3.08;1.27;;;;;;;26.71;33.38;101207.38;1727451;82;27870;-62
2022/06/03 13:02:26;;;;;;;4.80;1.45;;;;;;;26.80;33.44;101203.18;1717858;81;98741;-62
2022/06/03 13:05:01;;;;;;;3.62;1.02;;;;;;;27.05;33.44;101196.55;1723079;81;28424;-62
2022/06/03 13:07:32;;;;;;;1.80;1.37;;;;;;;27.25;33.18;101199.96;1728574;81;98901;-62
2022/06/03 13:10:10;;;;;;;3.08;1.12;;;;;;;27.15;32.89;101194.56;1728469;81;26513;-62
2022/06/03 13:12:41;;;;;;;3.37;1.10;;;;;;;27.05;32.26;101182.78;1727753;82;26232;-61
2022/06/03 13:15:25;;;;;;;2.27;1.20;;;;;;;26.87;32.40;101181.40;1727243;81;98749;-62
2022/06/03 13:18:10;;;;;;;2.15;1.45;;;;;;;27.03;32.59;101173.83;1725453;81;27706;-63
2022/06/03 13:21:02;;;;;;;2.85;1.20;;;;;;;27.35;32.53;101172.68;1713445;81;98704;-63
2022/06/03 13:23:45;;;;;;;2.12;0.80;;;;;;;27.47;31.80;101169.14;1724773;81;25829;-62